createdAt,value
2022-11-07T00:00:16.094Z,3.90
2022-11-07T00:05:34.600Z,3.96
2022-11-07T00:10:37.658Z,4.01
2022-11-07T00:15:40.656Z,4.05
2022-11-07T00:20:43.811Z,4.10
2022-11-07T00:25:46.913Z,4.12
2022-11-07T00:30:49.952Z,4.12
2022-11-07T00:35:52.968Z,4.11
2022-11-07T00:41:02.509Z,4.07
2022-11-07T00:46:08.557Z,4.03
2022-11-07T00:51:16.687Z,3.97
2022-11-07T00:56:24.964Z,3.89
2022-11-07T01:01:31.570Z,3.83
2022-11-07T01:06:39.377Z,3.77
2022-11-07T01:11:43.703Z,3.73
2022-11-07T01:16:47.663Z,3.68
2022-11-07T01:21:51.229Z,3.64
2022-11-07T01:26:54.317Z,3.64
2022-11-07T01:31:57.356Z,3.68
2022-11-07T01:37:00.314Z,3.73
2022-11-07T01:42:04.532Z,3.78
2022-11-07T01:47:09.061Z,3.83
2022-11-07T01:52:23.202Z,3.90
2022-11-07T01:57:38.800Z,3.95
2022-11-07T02:02:42.886Z,3.96
2022-11-07T02:07:46.929Z,3.95
2022-11-07T02:12:50.437Z,3.95
2022-11-07T02:17:55.514Z,3.98
2022-11-07T02:23:08.938Z,4.01
2022-11-07T02:28:14.555Z,4.02
2022-11-07T02:33:23.289Z,3.98
2022-11-07T02:38:33.268Z,3.96
2022-11-07T02:43:41.178Z,4.01
2022-11-07T02:48:54.287Z,4.08
2022-11-07T02:53:57.519Z,4.08
2022-11-07T02:59:00.522Z,4.06
2022-11-07T03:04:03.776Z,4.04
2022-11-07T03:09:06.788Z,4.02
2022-11-07T03:14:09.799Z,4.01
2022-11-07T03:19:12.777Z,3.98
2022-11-07T03:24:15.794Z,3.94
2022-11-07T03:29:18.700Z,3.91
2022-11-07T03:34:21.627Z,3.82
2022-11-07T03:39:26.051Z,3.76
2022-11-07T03:44:29.072Z,3.74
2022-11-07T03:49:32.087Z,3.73
2022-11-07T03:54:35.107Z,3.71
2022-11-07T03:59:38.151Z,3.70
2022-11-07T04:04:41.566Z,3.68
2022-11-07T04:09:44.544Z,3.68
2022-11-07T04:15:05.827Z,3.69
2022-11-07T04:20:09.951Z,3.75
2022-11-07T04:25:12.924Z,3.82
2022-11-07T04:30:30.032Z,3.94
2022-11-07T04:35:34.227Z,4.10
2022-11-07T04:40:37.379Z,4.28
2022-11-07T04:45:40.476Z,4.47
2022-11-07T04:50:44.557Z,4.61
2022-11-07T04:55:47.770Z,4.65
2022-11-07T05:00:53.831Z,4.79
2022-11-07T05:05:56.986Z,4.86
2022-11-07T05:11:00.023Z,4.86
2022-11-07T05:16:03.200Z,4.79
2022-11-07T05:21:06.694Z,4.77
2022-11-07T05:26:09.952Z,4.77
2022-11-07T05:31:17.526Z,4.81
2022-11-07T05:36:23.636Z,4.93
2022-11-07T05:41:26.767Z,4.94
2022-11-07T05:46:30.045Z,4.98
2022-11-07T05:51:33.171Z,5.10
2022-11-07T05:56:37.621Z,5.19
2022-11-07T06:01:41.350Z,5.34
2022-11-07T06:06:44.925Z,5.53
2022-11-07T06:11:48.004Z,5.76
2022-11-07T06:16:51.403Z,6.04
2022-11-07T06:21:54.419Z,6.27
2022-11-07T06:26:57.348Z,6.43
2022-11-07T06:32:00.380Z,6.56
2022-11-07T06:37:03.658Z,6.66
2022-11-07T06:42:06.744Z,6.76
2022-11-07T06:47:09.740Z,6.85
2022-11-07T06:52:13.068Z,6.88
2022-11-07T06:57:16.160Z,6.95
2022-11-07T07:02:43.876Z,7.03
2022-11-07T07:07:42.192Z,7.09
2022-11-07T07:12:46.447Z,7.16
2022-11-07T07:17:52.550Z,7.25
2022-11-07T07:23:01.439Z,7.33
2022-11-07T07:28:07.586Z,7.45
2022-11-07T07:33:10.602Z,7.55
2022-11-07T07:38:14.177Z,7.63
2022-11-07T07:43:17.565Z,7.66
2022-11-07T07:48:20.886Z,7.68
2022-11-07T07:53:24.385Z,7.66
2022-11-07T07:58:27.815Z,7.68
2022-11-07T08:03:50.598Z,7.79
2022-11-07T08:08:53.952Z,7.89
2022-11-07T08:14:01.020Z,8.05
2022-11-07T08:19:04.741Z,8.16
2022-11-07T08:24:08.826Z,8.26
2022-11-07T08:29:11.823Z,8.36
2022-11-07T08:34:15.565Z,8.37
2022-11-07T08:39:18.506Z,8.42
2022-11-07T08:44:21.466Z,8.50
2022-11-07T08:49:24.446Z,8.64
2022-11-07T08:54:28.889Z,8.73
2022-11-07T08:59:31.898Z,8.72
2022-11-07T09:04:34.954Z,8.74
2022-11-07T09:09:37.950Z,8.79
2022-11-07T09:14:40.943Z,8.78
2022-11-07T09:19:43.862Z,8.76
2022-11-07T09:24:46.827Z,8.78
2022-11-07T09:29:50.044Z,8.84
2022-11-07T09:34:58.170Z,8.91
2022-11-07T09:40:04.137Z,8.98
2022-11-07T09:45:13.497Z,9.07
2022-11-07T09:50:37.115Z,9.09
2022-11-07T09:56:01.870Z,9.08
2022-11-07T10:01:10.869Z,9.04
2022-11-07T10:06:31.098Z,9.02
2022-11-07T10:11:40.537Z,8.97
2022-11-07T10:16:58.154Z,9.07
2022-11-07T10:22:22.828Z,9.15
2022-11-07T10:27:27.332Z,9.24
2022-11-07T10:32:44.196Z,9.35
2022-11-07T10:38:00.606Z,9.52
2022-11-07T10:43:19.240Z,9.76
2022-11-07T10:48:22.235Z,9.82
2022-11-07T10:53:26.708Z,9.73
2022-11-07T10:58:42.989Z,9.73
2022-11-07T11:03:49.676Z,9.82
2022-11-07T11:08:53.463Z,9.81
2022-11-07T11:14:02.412Z,9.84
2022-11-07T11:19:16.638Z,9.87
2022-11-07T11:24:46.265Z,10.12
2022-11-07T11:30:15.465Z,10.44
2022-11-07T11:35:43.306Z,10.69
2022-11-07T11:41:03.354Z,10.91
2022-11-07T11:46:42.351Z,10.90
2022-11-07T11:51:55.533Z,10.82
2022-11-07T11:57:23.972Z,10.54
2022-11-07T12:02:38.458Z,10.48
2022-11-07T12:08:02.278Z,10.64
2022-11-07T12:13:41.966Z,10.59
2022-11-07T12:19:03.790Z,10.51
2022-11-07T12:24:26.096Z,10.49
2022-11-07T12:30:16.173Z,10.53
2022-11-07T12:35:57.599Z,10.59
2022-11-07T12:41:27.638Z,10.59
2022-11-07T12:46:56.602Z,10.63
2022-11-07T12:52:30.970Z,10.51
2022-11-07T12:57:38.285Z,10.49
2022-11-07T13:02:51.208Z,10.43
2022-11-07T13:08:04.639Z,10.34
2022-11-07T13:13:33.589Z,10.12
2022-11-07T13:18:36.551Z,10.02
2022-11-07T13:23:40.489Z,9.97
2022-11-07T13:28:56.960Z,9.93
2022-11-07T13:34:29.536Z,9.89
2022-11-07T13:39:34.427Z,9.82
2022-11-07T13:44:38.831Z,9.75
2022-11-07T13:49:47.303Z,9.66
2022-11-07T13:55:11.525Z,9.62
2022-11-07T14:00:19.576Z,9.62
2022-11-07T14:05:34.823Z,9.59
2022-11-07T14:10:44.694Z,9.56
2022-11-07T14:15:54.022Z,9.52
2022-11-07T14:20:59.638Z,9.45
2022-11-07T14:26:16.588Z,9.38
2022-11-07T14:31:30.736Z,9.33
2022-11-07T14:36:57.781Z,9.29
2022-11-07T14:42:27.144Z,9.28
2022-11-07T14:47:35.456Z,9.25
2022-11-07T14:52:52.048Z,9.21
2022-11-07T14:57:58.356Z,9.19
2022-11-07T15:03:02.450Z,9.16
2022-11-07T15:08:08.374Z,9.13
2022-11-07T15:13:26.678Z,9.11
2022-11-07T15:18:38.704Z,9.10
2022-11-07T15:23:42.967Z,9.07
2022-11-07T15:28:55.033Z,9.07
2022-11-07T15:33:59.644Z,9.07
2022-11-07T15:39:03.679Z,9.06
2022-11-07T15:44:07.250Z,9.06
2022-11-07T15:49:12.335Z,9.07
2022-11-07T15:54:16.767Z,9.09
2022-11-07T15:59:23.081Z,9.08
2022-11-07T16:04:26.122Z,9.08
2022-11-07T16:09:33.140Z,9.08
2022-11-07T16:14:43.978Z,9.07
2022-11-07T16:19:47.772Z,9.06
2022-11-07T16:24:50.904Z,9.05
2022-11-07T16:29:54.002Z,9.05
2022-11-07T16:34:57.046Z,9.04
2022-11-07T16:40:04.255Z,9.02
2022-11-07T16:45:08.705Z,9.02
2022-11-07T16:50:17.269Z,9.00
2022-11-07T16:55:20.595Z,8.97
2022-11-07T17:00:24.548Z,8.93
2022-11-07T17:05:27.483Z,8.87
2022-11-07T17:10:30.793Z,8.78
2022-11-07T17:15:35.560Z,8.66
2022-11-07T17:20:50.834Z,8.55
2022-11-07T17:25:55.115Z,8.45
2022-11-07T17:30:58.005Z,8.41
2022-11-07T17:36:01.010Z,8.42
2022-11-07T17:41:17.357Z,8.41
2022-11-07T17:46:26.929Z,8.39
2022-11-07T17:51:30.785Z,8.35
2022-11-07T17:56:37.922Z,8.33
2022-11-07T18:01:41.776Z,8.29
2022-11-07T18:06:44.898Z,8.26
2022-11-07T18:11:48.631Z,8.24
2022-11-07T18:16:51.834Z,8.22
2022-11-07T18:21:55.331Z,8.26
2022-11-07T18:26:58.283Z,8.32
2022-11-07T18:32:01.260Z,8.38
2022-11-07T18:37:04.450Z,8.45
2022-11-07T18:42:07.590Z,8.51
2022-11-07T18:47:10.629Z,8.56
2022-11-07T18:52:16.381Z,8.60
2022-11-07T18:57:19.496Z,8.65
2022-11-07T19:02:24.622Z,8.69
2022-11-07T19:07:27.725Z,8.72
2022-11-07T19:12:30.976Z,8.75
2022-11-07T19:17:34.695Z,8.76
2022-11-07T19:22:37.765Z,8.77
2022-11-07T19:27:41.397Z,8.76
2022-11-07T19:32:44.340Z,8.77
2022-11-07T19:37:47.321Z,8.79
2022-11-07T19:42:50.904Z,8.80
2022-11-07T19:47:54.913Z,8.83
2022-11-07T19:52:59.115Z,8.84
2022-11-07T19:58:02.189Z,8.85
2022-11-07T20:03:05.240Z,8.87
2022-11-07T20:08:08.386Z,8.87
2022-11-07T20:13:11.244Z,8.91
2022-11-07T20:18:14.234Z,8.96
2022-11-07T20:23:17.379Z,9.00
2022-11-07T20:28:20.863Z,9.05
2022-11-07T20:33:25.078Z,9.07
2022-11-07T20:38:29.425Z,9.09
2022-11-07T20:43:34.031Z,9.10
2022-11-07T20:48:38.574Z,9.10
2022-11-07T20:53:48.407Z,9.09
2022-11-07T20:58:54.150Z,9.09
2022-11-07T21:03:57.433Z,9.08
2022-11-07T21:09:00.865Z,9.07
2022-11-07T21:14:04.623Z,9.07
2022-11-07T21:19:08.859Z,9.07
2022-11-07T21:24:11.783Z,9.08
2022-11-07T21:29:15.660Z,9.09
2022-11-07T21:34:18.636Z,9.11
2022-11-07T21:39:21.600Z,9.11
2022-11-07T21:44:24.624Z,9.14
2022-11-07T21:49:27.553Z,9.16
2022-11-07T21:54:30.496Z,9.19
2022-11-07T21:59:33.517Z,9.21
2022-11-07T22:04:36.572Z,9.21
2022-11-07T22:09:39.489Z,9.21
2022-11-07T22:14:43.061Z,9.22
2022-11-07T22:19:47.146Z,9.23
2022-11-07T22:24:50.074Z,9.22
2022-11-07T22:29:53.010Z,9.18
2022-11-07T22:34:55.938Z,9.10
2022-11-07T22:39:59.353Z,8.99
2022-11-07T22:45:02.348Z,8.85
2022-11-07T22:50:05.966Z,8.72
2022-11-07T22:55:09.208Z,8.60
2022-11-07T23:00:21.525Z,8.52
2022-11-07T23:05:26.036Z,8.48
2022-11-07T23:10:28.991Z,8.53
2022-11-07T23:15:32.432Z,8.60
2022-11-07T23:21:09.227Z,8.66
2022-11-07T23:26:18.474Z,8.71
2022-11-07T23:31:21.452Z,8.72
2022-11-07T23:36:24.579Z,8.73
2022-11-07T23:41:27.617Z,8.72
2022-11-07T23:46:49.307Z,8.67
2022-11-07T23:51:52.203Z,8.56
2022-11-07T23:56:55.149Z,8.49
